Mc Guire Air Force Base Wrightstown US
ICAO: KWRI
IATA: WRI
Category: Medium
Scheduled Services: No

Elevation: 131 ft
TransAlt. 18000 ft.

Airport Communications:
APP/DEP:124.15
ATIS:110.6
CLNC DEL:135.2
GND:121.8
FT DIX RNG:34
ARMY OPS:41.35
PMSV METRO:23.98
COMD POST:31.94
PTD:134.1
TWR:118.65

KWRI Zoom In..

Runways:

(A) RW 06 length 10014 ft width 150 ft
ILS 110.10 / hdg 58

(B) RW 18 length 7126 ft width 150 ft
---- / hdg 185

(C) RW 24 length 10014 ft width 150 ft
ILS 110.10 / hdg 238

(D) RW 36 length 7126 ft width 150 ft
---- / hdg 5

Location; KWRI
Day. 10 / Time. 07.56 Zulu
* Altimeter: 29.42
* Temperature: 05° c. 41°f.
* Wind from: 270° Speed 15 kn with Gusts up to 25 kn.
Dewpoint: -03° c.
Visibility: 10 Statute Miles.
Clouds: Clear (automated report).

KWRI 100756Z 27015G25KT 10SM CLR 05/M03 A2942 RMK AO2A PK WND 28028/40 SLP962 T00491034 $


Wind From 270°
Speed 15 kn.

 
 
jpsmedia worldairports.se 2020   terms of use